createdAt,value
2023-02-21T00:02:06.649Z,11.93
2023-02-21T00:04:52.883Z,9.77
2023-02-21T00:07:39.456Z,9.60
2023-02-21T00:10:26.699Z,11.15
2023-02-21T00:13:12.915Z,10.27
2023-02-21T00:15:59.039Z,11.07
2023-02-21T00:18:45.412Z,10.48
2023-02-21T00:21:31.083Z,10.52
2023-02-21T00:24:16.992Z,9.68
2023-02-21T00:27:03.104Z,9.73
2023-02-21T00:29:49.178Z,9.50
2023-02-21T00:32:35.529Z,10.57
2023-02-21T00:35:22.009Z,10.75
2023-02-21T00:38:09.973Z,11.98
2023-02-21T00:40:56.602Z,10.83
2023-02-21T00:43:53.839Z,9.45
2023-02-21T00:46:40.271Z,9.63
2023-02-21T00:49:26.948Z,9.40
2023-02-21T00:52:13.450Z,9.77
2023-02-21T00:54:59.748Z,9.38
2023-02-21T00:57:45.813Z,9.30
2023-02-21T01:00:37.997Z,8.82
2023-02-21T01:03:24.672Z,13.10
2023-02-21T01:06:10.942Z,10.23
2023-02-21T01:09:03.277Z,9.20
2023-02-21T01:11:49.639Z,9.15
2023-02-21T01:14:36.674Z,10.85
2023-02-21T01:17:23.376Z,8.35
2023-02-21T01:20:10.208Z,10.90
2023-02-21T01:22:56.388Z,10.60
2023-02-21T01:25:43.264Z,10.52
2023-02-21T01:28:29.469Z,11.13
2023-02-21T01:31:15.673Z,10.65
2023-02-21T01:34:02.235Z,9.38
2023-02-21T01:36:48.798Z,9.70
2023-02-21T01:39:34.906Z,8.55
2023-02-21T01:42:21.272Z,8.75
2023-02-21T01:45:07.539Z,10.95
2023-02-21T01:47:54.005Z,8.55
2023-02-21T01:50:50.686Z,11.07
2023-02-21T01:53:43.280Z,9.02
2023-02-21T01:56:30.737Z,10.57
2023-02-21T01:59:20.381Z,9.35
2023-02-21T02:02:21.965Z,9.65
2023-02-21T02:05:09.986Z,10.60
2023-02-21T02:07:56.379Z,8.10
2023-02-21T02:10:42.675Z,11.43
2023-02-21T02:13:36.919Z,8.65
2023-02-21T02:16:19.698Z,11.98
2023-02-21T02:19:05.206Z,12.48
2023-02-21T02:22:16.467Z,10.98
2023-02-21T02:24:58.628Z,11.77
2023-02-21T02:27:43.995Z,11.27
2023-02-21T02:30:17.036Z,12.27
2023-02-21T02:33:02.777Z,13.18
2023-02-21T02:35:51.059Z,13.25
2023-02-21T02:38:24.601Z,11.95
2023-02-21T02:40:52.627Z,12.32
2023-02-21T02:43:34.608Z,11.35
2023-02-21T02:46:11.164Z,12.25
2023-02-21T02:48:44.165Z,12.32
2023-02-21T02:51:14.854Z,11.63
2023-02-21T02:53:42.869Z,13.35
2023-02-21T02:56:14.755Z,12.93
2023-02-21T02:58:52.101Z,12.05
2023-02-21T03:01:48.915Z,13.25
2023-02-21T03:04:34.560Z,12.30
2023-02-21T03:07:22.626Z,11.95
2023-02-21T03:09:54.782Z,12.95
2023-02-21T03:12:40.862Z,13.35
2023-02-21T03:15:11.039Z,11.63
2023-02-21T03:17:45.019Z,14.63
2023-02-21T03:20:15.164Z,11.63
2023-02-21T03:22:45.140Z,11.35
2023-02-21T03:25:14.612Z,11.00
2023-02-21T03:27:44.443Z,11.55
2023-02-21T03:30:13.937Z,11.55
2023-02-21T03:32:52.023Z,11.63
2023-02-21T03:35:20.949Z,10.33
2023-02-21T03:40:28.928Z,12.63
2023-02-21T03:42:58.587Z,10.20
2023-02-21T03:45:26.386Z,11.30
2023-02-21T03:47:54.003Z,11.50
2023-02-21T03:50:21.808Z,11.55
2023-02-21T03:52:50.350Z,9.27
2023-02-21T03:55:18.852Z,13.30
2023-02-21T03:57:46.708Z,8.80
2023-02-21T04:00:16.083Z,12.80
2023-02-21T04:02:44.328Z,12.02
2023-02-21T04:05:12.127Z,9.30
2023-02-21T04:07:40.002Z,12.07
2023-02-21T04:10:09.381Z,12.98
2023-02-21T04:15:06.368Z,14.23
2023-02-21T04:17:34.511Z,12.82
2023-02-21T04:20:02.493Z,13.60
2023-02-21T04:22:30.196Z,14.35
2023-02-21T04:24:58.172Z,14.93
2023-02-21T04:27:27.362Z,14.25
2023-02-21T04:32:22.318Z,15.85
2023-02-21T04:34:49.867Z,12.63
2023-02-21T04:37:17.390Z,12.10
2023-02-21T04:39:45.178Z,11.90
2023-02-21T04:42:12.856Z,16.20
2023-02-21T04:44:41.508Z,19.13
2023-02-21T04:47:09.120Z,13.20
2023-02-21T04:49:36.993Z,9.52
2023-02-21T04:52:04.957Z,12.38
2023-02-21T04:54:32.602Z,12.75
2023-02-21T04:57:00.562Z,13.13
2023-02-21T04:59:28.394Z,14.32
2023-02-21T05:01:56.141Z,12.48
2023-02-21T05:04:23.827Z,12.25
2023-02-21T05:06:51.328Z,13.75
2023-02-21T05:09:19.158Z,13.65
2023-02-21T05:11:47.200Z,9.90
2023-02-21T05:14:14.731Z,14.43
2023-02-21T05:16:42.463Z,14.20
2023-02-21T05:19:10.055Z,14.30
2023-02-21T05:21:38.839Z,16.30
2023-02-21T05:24:07.531Z,15.27
2023-02-21T05:26:37.656Z,17.10
2023-02-21T05:29:05.677Z,14.60
2023-02-21T05:31:33.759Z,16.55
2023-02-21T05:34:01.207Z,15.10
2023-02-21T05:36:28.690Z,15.32
2023-02-21T05:38:56.605Z,16.85
2023-02-21T05:41:24.720Z,15.55
2023-02-21T05:43:53.014Z,14.40
2023-02-21T05:46:29.178Z,17.30
2023-02-21T05:48:57.908Z,15.98
2023-02-21T05:51:26.279Z,16.85
2023-02-21T05:53:54.052Z,17.30
2023-02-21T05:56:22.422Z,11.52
2023-02-21T05:58:50.351Z,16.08
2023-02-21T06:01:18.167Z,15.48
2023-02-21T06:03:46.453Z,12.77
2023-02-21T06:06:17.186Z,15.93
2023-02-21T06:08:47.544Z,17.13
2023-02-21T06:11:22.006Z,13.48
2023-02-21T06:13:53.448Z,13.60
2023-02-21T06:16:21.968Z,16.75
2023-02-21T06:18:53.603Z,16.80
2023-02-21T06:21:21.289Z,15.48
2023-02-21T06:23:49.533Z,16.90
2023-02-21T06:26:18.403Z,15.93
2023-02-21T06:28:46.942Z,15.65
2023-02-21T06:31:15.416Z,16.20
2023-02-21T06:33:43.331Z,13.80
2023-02-21T06:36:15.124Z,15.15
2023-02-21T06:38:47.164Z,15.15
2023-02-21T06:41:17.015Z,17.23
2023-02-21T06:43:44.493Z,14.88
2023-02-21T06:46:17.204Z,13.38
2023-02-21T06:48:45.209Z,14.18
2023-02-21T06:51:14.810Z,12.73
2023-02-21T06:53:43.946Z,13.50
2023-02-21T06:56:12.200Z,11.63
2023-02-21T06:58:39.785Z,9.38
2023-02-21T07:01:07.258Z,12.52
2023-02-21T07:03:38.657Z,11.45
2023-02-21T07:06:06.666Z,11.18
2023-02-21T07:08:34.544Z,12.07
2023-02-21T07:11:02.210Z,12.35
2023-02-21T07:13:29.682Z,11.98
2023-02-21T07:15:57.220Z,11.95
2023-02-21T07:18:24.764Z,12.55
2023-02-21T07:20:52.643Z,12.20
2023-02-21T07:23:20.118Z,12.82
2023-02-21T07:25:47.831Z,12.52
2023-02-21T07:28:16.176Z,12.80
2023-02-21T07:30:43.853Z,15.55
2023-02-21T07:33:11.808Z,15.32
2023-02-21T07:35:39.586Z,16.27
2023-02-21T07:38:07.093Z,20.95
2023-02-21T07:40:34.604Z,19.52
2023-02-21T07:43:02.531Z,15.25
2023-02-21T07:45:30.308Z,13.17
2023-02-21T07:47:58.052Z,15.98
2023-02-21T07:50:26.045Z,14.38
2023-02-21T07:52:53.672Z,17.30
2023-02-21T07:55:21.809Z,16.10
2023-02-21T07:57:49.313Z,17.40
2023-02-21T08:00:17.286Z,20.83
2023-02-21T08:02:51.413Z,16.95
2023-02-21T08:05:20.870Z,19.60
2023-02-21T08:07:48.701Z,18.02
2023-02-21T08:10:25.939Z,20.45
2023-02-21T08:12:53.484Z,22.85
2023-02-21T08:15:21.037Z,23.05
2023-02-21T08:17:49.915Z,21.58
2023-02-21T08:20:19.242Z,22.58
2023-02-21T08:22:47.204Z,24.52
2023-02-21T08:25:16.185Z,20.00
2023-02-21T08:27:44.516Z,22.80
2023-02-21T08:30:14.743Z,20.23
2023-02-21T08:32:43.913Z,18.30
2023-02-21T08:35:17.328Z,20.27
2023-02-21T08:37:48.988Z,20.83
2023-02-21T08:40:19.748Z,23.50
2023-02-21T08:42:52.368Z,20.13
2023-02-21T08:45:21.908Z,22.15
2023-02-21T08:47:50.491Z,20.10
2023-02-21T08:50:19.961Z,21.83
2023-02-21T08:52:48.985Z,22.77
2023-02-21T08:55:17.064Z,19.98
2023-02-21T08:57:44.556Z,15.33
2023-02-21T09:00:14.966Z,20.08
2023-02-21T09:02:42.960Z,20.25
2023-02-21T09:05:19.568Z,17.63
2023-02-21T09:07:51.460Z,16.48
2023-02-21T09:10:19.354Z,16.77
2023-02-21T09:12:47.887Z,16.55
2023-02-21T09:15:16.394Z,10.00
2023-02-21T09:17:44.813Z,16.95
2023-02-21T09:20:17.902Z,16.83
2023-02-21T09:22:47.285Z,16.90
2023-02-21T09:25:18.406Z,19.30
2023-02-21T09:27:46.170Z,13.88
2023-02-21T09:30:18.786Z,17.95
2023-02-21T09:32:48.444Z,19.40
2023-02-21T09:35:16.721Z,14.05
2023-02-21T09:37:46.625Z,13.30
2023-02-21T09:40:26.247Z,15.05
2023-02-21T09:42:57.147Z,15.10
2023-02-21T09:45:29.698Z,14.55
2023-02-21T09:48:01.334Z,15.77
2023-02-21T09:50:34.851Z,13.82
2023-02-21T09:53:03.376Z,13.75
2023-02-21T09:55:42.409Z,12.18
2023-02-21T09:58:15.548Z,12.57
2023-02-21T10:00:46.488Z,14.07
2023-02-21T10:03:31.736Z,15.70
2023-02-21T10:06:09.181Z,13.63
2023-02-21T10:09:19.862Z,14.77
2023-02-21T10:11:58.157Z,12.30
2023-02-21T10:14:34.804Z,14.18
2023-02-21T10:17:14.398Z,12.27
2023-02-21T10:19:48.392Z,13.15
2023-02-21T10:22:28.416Z,14.75
2023-02-21T10:24:56.190Z,17.10
2023-02-21T10:27:27.540Z,15.50
2023-02-21T10:30:10.347Z,15.52
2023-02-21T10:32:39.289Z,11.18
2023-02-21T10:35:07.867Z,18.80
2023-02-21T10:37:48.867Z,12.05
2023-02-21T10:40:44.394Z,13.05
2023-02-21T10:43:36.857Z,11.88
2023-02-21T10:46:22.542Z,12.70
2023-02-21T10:48:53.122Z,9.70
2023-02-21T10:51:33.673Z,13.93
2023-02-21T10:54:22.248Z,12.40
2023-02-21T10:56:52.737Z,13.25
2023-02-21T10:59:26.618Z,11.00
2023-02-21T11:01:56.374Z,17.85
2023-02-21T11:04:30.050Z,19.95
2023-02-21T11:06:59.012Z,15.73
2023-02-21T11:09:31.254Z,15.15
2023-02-21T11:12:19.918Z,17.40
2023-02-21T11:14:53.510Z,15.77
2023-02-21T11:17:23.371Z,13.65
2023-02-21T11:19:55.433Z,16.10
2023-02-21T11:22:26.688Z,15.77
2023-02-21T11:25:00.891Z,17.75
2023-02-21T11:27:31.911Z,21.05
2023-02-21T11:30:02.851Z,16.00
2023-02-21T11:32:39.005Z,18.15
2023-02-21T11:35:22.285Z,14.02
2023-02-21T11:38:01.810Z,15.02
2023-02-21T11:40:47.461Z,15.93
2023-02-21T11:43:33.728Z,15.10
2023-02-21T11:46:05.801Z,14.65
2023-02-21T11:48:42.733Z,15.52
2023-02-21T11:51:23.547Z,16.02
2023-02-21T11:53:51.474Z,17.23
2023-02-21T11:56:31.123Z,14.93
2023-02-21T11:59:25.264Z,17.17
2023-02-21T12:02:31.043Z,15.23
2023-02-21T12:05:29.024Z,16.08
2023-02-21T12:08:20.811Z,13.47
2023-02-21T12:10:51.461Z,19.27
2023-02-21T12:13:34.235Z,18.17
2023-02-21T12:16:23.218Z,12.80
2023-02-21T12:21:45.642Z,14.80
2023-02-21T12:24:44.284Z,19.23
2023-02-21T12:27:56.291Z,16.48
2023-02-21T12:30:52.610Z,17.50
2023-02-21T12:33:26.211Z,18.17
2023-02-21T12:36:13.806Z,17.13
2023-02-21T12:38:50.137Z,19.80
2023-02-21T12:41:23.573Z,14.95
2023-02-21T12:44:04.269Z,18.08
2023-02-21T12:46:39.770Z,19.85
2023-02-21T12:49:16.530Z,15.38
2023-02-21T12:51:54.035Z,14.10
2023-02-21T12:54:43.410Z,17.48
2023-02-21T12:57:21.572Z,17.30
2023-02-21T13:00:17.492Z,15.70
2023-02-21T13:03:22.373Z,15.63
2023-02-21T13:05:58.582Z,17.90
2023-02-21T13:08:34.151Z,18.60
2023-02-21T13:11:13.577Z,19.48
2023-02-21T13:13:41.835Z,18.20
2023-02-21T13:16:13.209Z,13.00
2023-02-21T13:18:46.848Z,18.27
2023-02-21T13:21:40.116Z,16.40
2023-02-21T13:24:38.406Z,15.70
2023-02-21T13:27:44.671Z,15.55
2023-02-21T13:30:28.869Z,23.88
2023-02-21T13:32:59.259Z,18.25
2023-02-21T13:35:36.397Z,18.73
2023-02-21T13:38:10.758Z,19.55
2023-02-21T13:41:02.756Z,18.65
2023-02-21T13:43:35.015Z,16.92
2023-02-21T13:46:24.498Z,18.83
2023-02-21T13:49:29.670Z,19.95
2023-02-21T13:52:20.221Z,18.90
2023-02-21T13:55:15.731Z,19.15
2023-02-21T13:57:56.711Z,22.17
2023-02-21T14:00:24.918Z,20.75
2023-02-21T14:03:01.166Z,21.92
2023-02-21T14:05:46.745Z,19.95
2023-02-21T14:08:38.080Z,21.13
2023-02-21T14:11:06.084Z,25.65
2023-02-21T14:13:38.728Z,17.33
2023-02-21T14:16:09.593Z,21.67
2023-02-21T14:18:37.409Z,19.85
2023-02-21T14:21:20.295Z,19.48
2023-02-21T14:23:55.438Z,21.27
2023-02-21T14:26:43.058Z,20.38
2023-02-21T14:29:34.590Z,22.23
2023-02-21T14:32:04.805Z,21.70
2023-02-21T14:34:35.327Z,22.83
2023-02-21T14:37:40.812Z,29.30
2023-02-21T14:40:12.072Z,20.20
2023-02-21T14:42:54.669Z,25.55
2023-02-21T14:45:29.502Z,20.42
2023-02-21T14:48:07.775Z,23.45
2023-02-21T14:50:45.967Z,29.15
2023-02-21T14:53:19.421Z,59.10
2023-02-21T14:56:07.297Z,29.92
2023-02-21T14:58:53.365Z,23.65
2023-02-21T15:01:52.663Z,38.58
2023-02-21T15:04:29.288Z,22.08
2023-02-21T15:07:22.530Z,21.45
2023-02-21T15:10:11.769Z,71.15
2023-02-21T15:12:51.151Z,32.63
2023-02-21T15:15:26.880Z,36.95
2023-02-21T15:17:59.232Z,29.48
2023-02-21T15:20:27.368Z,26.15
2023-02-21T15:23:29.580Z,23.37
2023-02-21T15:26:23.514Z,23.20
2023-02-21T15:29:14.027Z,37.22
2023-02-21T15:31:49.026Z,31.25
2023-02-21T15:34:25.179Z,26.17
2023-02-21T15:37:03.903Z,32.50
2023-02-21T15:39:40.500Z,23.67
2023-02-21T15:42:11.625Z,35.30
2023-02-21T15:44:50.897Z,28.88
2023-02-21T15:47:22.493Z,33.35
2023-02-21T15:50:13.134Z,26.05
2023-02-21T15:52:43.155Z,24.23
2023-02-21T15:55:19.651Z,27.38
2023-02-21T15:57:57.106Z,26.08
2023-02-21T16:00:32.826Z,24.90
2023-02-21T16:03:31.590Z,23.50
2023-02-21T16:08:59.203Z,26.33
2023-02-21T16:11:42.879Z,24.95
2023-02-21T16:14:39.639Z,21.50
2023-02-21T16:17:28.669Z,24.42
2023-02-21T16:20:38.604Z,21.67
2023-02-21T16:23:30.710Z,19.15
2023-02-21T16:26:10.006Z,20.90
2023-02-21T16:28:41.516Z,16.83
2023-02-21T16:31:29.212Z,19.10
2023-02-21T16:33:57.361Z,23.50
2023-02-21T16:36:30.439Z,15.30
2023-02-21T16:38:59.196Z,20.77
2023-02-21T16:41:27.572Z,22.83
2023-02-21T16:43:55.652Z,19.38
2023-02-21T16:46:28.413Z,18.55
2023-02-21T16:48:59.062Z,20.80
2023-02-21T16:51:33.660Z,22.42
2023-02-21T16:54:03.079Z,21.45
2023-02-21T16:56:30.681Z,20.65
2023-02-21T16:58:58.765Z,15.90
2023-02-21T17:01:29.608Z,20.13
2023-02-21T17:03:58.362Z,22.10
2023-02-21T17:06:27.660Z,19.38
2023-02-21T17:08:56.678Z,18.65
2023-02-21T17:11:26.295Z,19.95
2023-02-21T17:13:53.972Z,21.20
2023-02-21T17:16:22.012Z,22.00
2023-02-21T17:18:49.945Z,21.55
2023-02-21T17:21:17.690Z,18.27
2023-02-21T17:23:45.722Z,21.38
2023-02-21T17:26:13.527Z,18.98
2023-02-21T17:28:41.442Z,19.38
2023-02-21T17:31:09.380Z,18.35
2023-02-21T17:33:38.207Z,18.48
2023-02-21T17:36:05.966Z,18.48
2023-02-21T17:38:33.982Z,19.77
2023-02-21T17:41:02.156Z,17.42
2023-02-21T17:43:31.246Z,20.75
2023-02-21T17:45:58.849Z,20.65
2023-02-21T17:48:26.949Z,19.02
2023-02-21T17:50:55.123Z,21.70
2023-02-21T17:53:23.036Z,24.00
2023-02-21T17:55:50.766Z,18.48
2023-02-21T17:58:18.879Z,15.23
2023-02-21T18:00:47.640Z,13.65
2023-02-21T18:03:16.440Z,16.48
2023-02-21T18:05:44.253Z,19.10
2023-02-21T18:08:12.076Z,18.45
2023-02-21T18:10:46.331Z,17.00
2023-02-21T18:13:19.792Z,17.48
2023-02-21T18:15:47.684Z,19.02
2023-02-21T18:18:15.631Z,18.75
2023-02-21T18:20:43.987Z,24.52
2023-02-21T18:23:12.256Z,14.30
2023-02-21T18:25:40.236Z,17.52
2023-02-21T18:28:08.468Z,21.05
2023-02-21T18:30:36.412Z,17.88
2023-02-21T18:33:04.063Z,19.98
2023-02-21T18:35:31.823Z,22.90
2023-02-21T18:38:00.057Z,18.37
2023-02-21T18:40:44.469Z,21.90
2023-02-21T18:43:27.125Z,19.42
2023-02-21T18:45:57.409Z,21.58
2023-02-21T18:48:26.880Z,18.70
2023-02-21T18:50:56.395Z,17.83
2023-02-21T18:53:24.111Z,16.63
2023-02-21T18:58:20.978Z,18.15
2023-02-21T19:00:51.885Z,16.08
2023-02-21T19:03:20.100Z,18.60
2023-02-21T19:05:49.495Z,14.95
2023-02-21T19:08:18.291Z,18.98
2023-02-21T19:10:48.732Z,18.40
2023-02-21T19:13:17.102Z,19.92
2023-02-21T19:15:44.787Z,15.60
2023-02-21T19:18:15.607Z,17.00
2023-02-21T19:20:44.045Z,16.98
2023-02-21T19:23:12.853Z,19.10
2023-02-21T19:25:40.723Z,13.40
2023-02-21T19:28:08.840Z,20.60
2023-02-21T19:30:37.225Z,20.30
2023-02-21T19:33:06.921Z,15.07
2023-02-21T19:35:35.752Z,16.80
2023-02-21T19:38:06.162Z,18.80
2023-02-21T19:40:36.163Z,17.23
2023-02-21T19:43:04.408Z,20.38
2023-02-21T19:45:32.803Z,15.30
2023-02-21T19:48:00.927Z,15.35
2023-02-21T19:50:34.444Z,23.48
2023-02-21T19:53:02.670Z,31.75
2023-02-21T19:55:31.704Z,22.90
2023-02-21T19:58:07.074Z,21.30
2023-02-21T20:00:36.959Z,19.35
2023-02-21T20:03:04.833Z,20.75
2023-02-21T20:05:32.784Z,16.70
2023-02-21T20:08:00.661Z,19.38
2023-02-21T20:10:31.116Z,18.17
2023-02-21T20:12:59.322Z,19.02
2023-02-21T20:15:28.381Z,19.52
2023-02-21T20:17:56.250Z,17.83
2023-02-21T20:20:24.854Z,21.27
2023-02-21T20:22:52.733Z,20.38
2023-02-21T20:25:22.232Z,20.73
2023-02-21T20:27:53.482Z,29.58
2023-02-21T20:30:23.935Z,21.40
2023-02-21T20:32:53.229Z,41.10
2023-02-21T20:35:21.419Z,21.63
2023-02-21T20:37:49.155Z,23.48
2023-02-21T20:40:18.803Z,23.00
2023-02-21T20:42:46.802Z,32.88
2023-02-21T20:45:14.596Z,23.95
2023-02-21T20:47:43.379Z,25.95
2023-02-21T20:50:12.957Z,23.30
2023-02-21T20:52:41.925Z,20.27
2023-02-21T20:55:09.848Z,52.17
2023-02-21T20:57:38.021Z,21.17
2023-02-21T21:00:09.504Z,35.83
2023-02-21T21:02:39.754Z,30.45
2023-02-21T21:05:13.681Z,51.95
2023-02-21T21:07:42.131Z,32.72
2023-02-21T21:10:14.547Z,32.40
2023-02-21T21:12:43.744Z,26.70
2023-02-21T21:15:14.402Z,34.60
2023-02-21T21:17:43.950Z,27.98
2023-02-21T21:20:19.123Z,30.15
2023-02-21T21:22:47.914Z,23.27
2023-02-21T21:25:17.138Z,21.50
2023-02-21T21:27:45.704Z,21.80
2023-02-21T21:30:22.549Z,20.00
2023-02-21T21:32:50.543Z,20.05
2023-02-21T21:35:20.237Z,20.70
2023-02-21T21:37:49.721Z,20.02
2023-02-21T21:40:21.844Z,18.35
2023-02-21T21:42:52.134Z,19.33
2023-02-21T21:45:24.936Z,19.08
2023-02-21T21:47:58.678Z,18.85
2023-02-21T21:50:28.086Z,21.00
2023-02-21T21:52:58.472Z,19.30
2023-02-21T21:55:29.269Z,19.90
2023-02-21T21:57:58.886Z,18.45
2023-02-21T22:00:29.734Z,17.80
2023-02-21T22:02:59.722Z,18.83
2023-02-21T22:05:30.499Z,20.15
2023-02-21T22:07:59.034Z,17.35
2023-02-21T22:10:28.634Z,22.05
2023-02-21T22:12:59.922Z,20.70
2023-02-21T22:15:29.495Z,21.63
2023-02-21T22:18:01.935Z,21.15
2023-02-21T22:20:33.093Z,21.70
2023-02-21T22:23:00.958Z,18.75
2023-02-21T22:25:30.699Z,21.83
2023-02-21T22:27:59.203Z,20.02
2023-02-21T22:30:28.862Z,21.98
2023-02-21T22:32:56.714Z,21.98
2023-02-21T22:35:25.281Z,20.30
2023-02-21T22:42:56.847Z,18.67
2023-02-21T22:45:24.518Z,21.00
2023-02-21T22:47:57.855Z,20.48
2023-02-21T22:50:26.507Z,21.40
2023-02-21T22:52:57.178Z,21.13
2023-02-21T22:55:26.804Z,20.00
2023-02-21T22:57:56.755Z,18.92
2023-02-21T23:00:33.016Z,19.55
2023-02-21T23:03:13.162Z,21.08
2023-02-21T23:05:43.798Z,22.20
2023-02-21T23:08:13.393Z,20.38
2023-02-21T23:10:41.377Z,20.95
2023-02-21T23:13:18.754Z,21.55
2023-02-21T23:15:47.058Z,19.45
2023-02-21T23:18:23.324Z,18.77
2023-02-21T23:20:56.377Z,18.38
2023-02-21T23:23:27.293Z,17.67
2023-02-21T23:25:59.122Z,21.92
2023-02-21T23:28:29.498Z,18.77
2023-02-21T23:30:58.206Z,20.70
2023-02-21T23:38:24.738Z,15.32
2023-02-21T23:40:56.397Z,22.25
2023-02-21T23:43:29.596Z,18.85
2023-02-21T23:46:00.278Z,21.88
2023-02-21T23:48:29.594Z,21.10
2023-02-21T23:50:57.773Z,22.50
2023-02-21T23:53:29.486Z,21.75
2023-02-21T23:56:00.397Z,22.85
2023-02-21T23:58:32.241Z,22.63
